createdAt,value
2023-05-20T00:01:24.929Z,13.95
2023-05-20T00:04:12.280Z,13.90
2023-05-20T00:07:00.711Z,13.89
2023-05-20T00:09:47.555Z,13.91
2023-05-20T00:12:35.610Z,13.88
2023-05-20T00:15:23.470Z,13.94
2023-05-20T00:18:11.951Z,13.97
2023-05-20T00:20:59.511Z,13.95
2023-05-20T00:23:47.610Z,14.03
2023-05-20T00:26:34.798Z,13.99
2023-05-20T00:29:23.139Z,14.04
2023-05-20T00:32:10.542Z,14.00
2023-05-20T00:34:58.756Z,13.96
2023-05-20T00:37:46.173Z,13.89
2023-05-20T00:40:32.963Z,13.79
2023-05-20T00:43:21.598Z,13.73
2023-05-20T00:46:09.154Z,13.68
2023-05-20T00:48:58.359Z,13.60
2023-05-20T00:51:45.536Z,13.54
2023-05-20T00:54:33.819Z,13.54
2023-05-20T00:57:21.296Z,13.52
2023-05-20T01:00:11.594Z,13.59
2023-05-20T01:03:00.590Z,13.56
2023-05-20T01:05:49.327Z,13.51
2023-05-20T01:08:41.640Z,13.48
2023-05-20T01:11:43.832Z,13.50
2023-05-20T01:14:37.365Z,13.50
2023-05-20T01:17:27.891Z,13.48
2023-05-20T01:20:16.429Z,13.43
2023-05-20T01:23:04.673Z,13.38
2023-05-20T01:25:52.427Z,13.35
2023-05-20T01:28:39.755Z,13.38
2023-05-20T01:31:34.846Z,13.42
2023-05-20T01:34:22.290Z,13.39
2023-05-20T01:37:11.442Z,13.39
2023-05-20T01:39:58.986Z,13.39
2023-05-20T01:42:53.083Z,13.36
2023-05-20T01:45:42.816Z,13.35
2023-05-20T01:48:31.741Z,13.36
2023-05-20T01:51:18.791Z,13.39
2023-05-20T01:54:07.163Z,13.37
2023-05-20T01:56:53.982Z,13.33
2023-05-20T01:59:43.535Z,13.32
2023-05-20T02:02:32.078Z,13.30
2023-05-20T02:05:19.660Z,13.24
2023-05-20T02:08:07.283Z,13.25
2023-05-20T02:10:56.029Z,13.24
2023-05-20T02:13:44.501Z,13.22
2023-05-20T02:16:32.266Z,13.21
2023-05-20T02:19:24.038Z,13.30
2023-05-20T02:22:11.842Z,13.33
2023-05-20T02:24:59.093Z,13.39
2023-05-20T02:27:46.428Z,13.48
2023-05-20T02:30:37.048Z,13.53
2023-05-20T02:33:25.010Z,13.58
2023-05-20T02:36:11.808Z,13.49
2023-05-20T02:38:59.018Z,13.41
2023-05-20T02:41:46.513Z,13.31
2023-05-20T02:44:34.502Z,13.24
2023-05-20T02:47:21.914Z,13.29
2023-05-20T02:50:09.644Z,13.31
2023-05-20T02:52:56.461Z,13.21
2023-05-20T02:55:43.395Z,13.16
2023-05-20T02:58:30.468Z,13.22
2023-05-20T03:01:19.281Z,13.26
2023-05-20T03:04:05.991Z,13.30
2023-05-20T03:06:53.464Z,13.26
2023-05-20T03:09:42.880Z,13.24
2023-05-20T03:12:32.090Z,13.27
2023-05-20T03:15:18.865Z,13.22
2023-05-20T03:18:07.792Z,13.13
2023-05-20T03:20:54.726Z,13.07
2023-05-20T03:23:41.483Z,13.04
2023-05-20T03:26:28.347Z,12.98
2023-05-20T03:29:14.753Z,12.93
2023-05-20T03:32:02.853Z,12.95
2023-05-20T03:34:49.987Z,12.95
2023-05-20T03:37:37.409Z,12.98
2023-05-20T03:40:23.871Z,13.05
2023-05-20T03:43:10.371Z,13.08
2023-05-20T03:45:56.795Z,13.09
2023-05-20T03:48:43.738Z,13.14
2023-05-20T03:51:30.448Z,13.15
2023-05-20T03:54:24.995Z,13.18
2023-05-20T03:57:12.980Z,13.16
2023-05-20T04:00:00.145Z,13.24
2023-05-20T04:02:47.144Z,13.29
2023-05-20T04:05:40.332Z,13.22
2023-05-20T04:08:36.958Z,13.16
2023-05-20T04:11:24.276Z,13.19
2023-05-20T04:14:16.333Z,13.18
2023-05-20T04:17:05.898Z,13.20
2023-05-20T04:19:53.452Z,13.20
2023-05-20T04:22:40.680Z,13.30
2023-05-20T04:25:27.658Z,13.35
2023-05-20T04:28:16.965Z,13.39
2023-05-20T04:31:04.895Z,13.37
2023-05-20T04:33:55.321Z,13.44
2023-05-20T04:36:42.410Z,13.48
2023-05-20T04:39:29.652Z,13.60
2023-05-20T04:42:20.564Z,13.62
2023-05-20T04:45:09.452Z,13.70
2023-05-20T04:47:56.704Z,13.66
2023-05-20T04:50:44.255Z,13.60
2023-05-20T04:53:32.887Z,13.55
2023-05-20T04:56:22.326Z,13.49
2023-05-20T04:59:11.405Z,13.56
2023-05-20T05:02:00.970Z,13.62
2023-05-20T05:04:47.692Z,13.65
2023-05-20T05:07:35.263Z,13.74
2023-05-20T05:10:23.492Z,13.79
2023-05-20T05:13:09.603Z,13.77
2023-05-20T05:16:01.541Z,13.79
2023-05-20T05:18:49.304Z,13.87
2023-05-20T05:21:37.103Z,13.94
2023-05-20T05:24:23.455Z,14.01
2023-05-20T05:27:13.072Z,13.99
2023-05-20T05:29:59.675Z,13.94
2023-05-20T05:32:45.883Z,13.96
2023-05-20T05:35:33.557Z,13.99
2023-05-20T05:38:20.441Z,14.08
2023-05-20T05:41:08.135Z,14.06
2023-05-20T05:43:54.514Z,14.08
2023-05-20T05:46:41.428Z,14.13
2023-05-20T05:49:27.871Z,14.17
2023-05-20T05:52:14.043Z,14.25
2023-05-20T05:55:01.983Z,14.32
2023-05-20T05:57:49.721Z,14.33
2023-05-20T06:00:35.895Z,14.34
2023-05-20T06:03:23.028Z,14.37
2023-05-20T06:06:09.356Z,14.39
2023-05-20T06:08:56.069Z,14.42
2023-05-20T06:11:44.845Z,14.48
2023-05-20T06:14:32.745Z,14.41
2023-05-20T06:17:19.683Z,14.48
2023-05-20T06:20:07.314Z,14.55
2023-05-20T06:22:54.010Z,14.64
2023-05-20T06:25:43.132Z,14.69
2023-05-20T06:28:29.976Z,14.71
2023-05-20T06:31:17.549Z,14.71
2023-05-20T06:34:04.112Z,14.78
2023-05-20T06:36:51.211Z,14.84
2023-05-20T06:39:37.997Z,14.89
2023-05-20T06:42:24.760Z,14.90
2023-05-20T06:45:22.576Z,15.01
2023-05-20T06:48:12.793Z,15.17
2023-05-20T06:50:59.175Z,15.37
2023-05-20T06:53:46.350Z,15.53
2023-05-20T06:56:33.670Z,15.65
2023-05-20T06:59:20.594Z,15.79
2023-05-20T07:02:06.857Z,15.91
2023-05-20T07:04:54.127Z,16.10
2023-05-20T07:07:40.351Z,16.39
2023-05-20T07:10:26.388Z,16.62
2023-05-20T07:13:13.072Z,16.89
2023-05-20T07:15:59.549Z,17.16
2023-05-20T07:18:47.958Z,17.36
2023-05-20T07:21:34.172Z,17.63
2023-05-20T07:24:43.016Z,17.80
2023-05-20T07:27:29.594Z,17.95
2023-05-20T07:30:17.536Z,18.08
2023-05-20T07:33:11.901Z,18.22
2023-05-20T07:35:58.925Z,18.48
2023-05-20T07:38:57.115Z,18.79
2023-05-20T07:41:51.363Z,19.26
2023-05-20T07:44:37.392Z,19.55
2023-05-20T07:47:24.401Z,19.57
2023-05-20T07:50:12.147Z,19.57
2023-05-20T07:52:58.379Z,19.53
2023-05-20T07:55:47.395Z,19.47
2023-05-20T07:58:33.898Z,19.44
2023-05-20T08:01:25.675Z,19.44
2023-05-20T08:04:14.044Z,19.53
2023-05-20T08:07:06.360Z,19.86
2023-05-20T08:10:11.504Z,20.00
2023-05-20T08:12:57.972Z,20.18
2023-05-20T08:15:49.064Z,20.50
2023-05-20T08:21:40.952Z,20.69
2023-05-20T08:24:29.822Z,20.51
2023-05-20T08:27:23.226Z,20.60
2023-05-20T08:30:13.939Z,20.55
2023-05-20T08:33:02.113Z,20.66
2023-05-20T08:35:50.062Z,20.64
2023-05-20T08:38:37.463Z,20.64
2023-05-20T08:41:25.414Z,20.34
2023-05-20T08:44:12.424Z,20.29
2023-05-20T08:47:03.574Z,20.22
2023-05-20T08:49:50.688Z,20.26
2023-05-20T08:52:42.193Z,20.46
2023-05-20T08:55:53.080Z,20.66
2023-05-20T08:58:39.584Z,20.73
2023-05-20T09:01:27.094Z,20.90
2023-05-20T09:04:14.697Z,21.28
2023-05-20T09:07:01.160Z,21.41
2023-05-20T09:09:47.197Z,21.37
2023-05-20T09:12:33.881Z,21.07
2023-05-20T09:15:21.011Z,20.61
2023-05-20T09:18:09.320Z,20.38
2023-05-20T09:20:55.706Z,20.14
2023-05-20T09:23:48.735Z,19.94
2023-05-20T09:26:55.097Z,19.97
2023-05-20T09:29:43.513Z,19.79
2023-05-20T09:32:35.982Z,19.74
2023-05-20T09:35:23.769Z,19.80
2023-05-20T09:38:11.727Z,19.73
2023-05-20T09:41:02.222Z,19.81
2023-05-20T09:43:53.687Z,19.86
2023-05-20T09:49:47.506Z,20.27
2023-05-20T09:52:37.567Z,20.39
2023-05-20T09:55:25.056Z,20.48
2023-05-20T09:58:16.422Z,20.86
2023-05-20T10:01:03.043Z,21.31
2023-05-20T10:03:50.375Z,21.78
2023-05-20T10:06:55.554Z,22.40
2023-05-20T10:09:51.653Z,22.53
2023-05-20T10:12:59.475Z,22.66
2023-05-20T10:16:09.663Z,23.09
2023-05-20T10:19:21.751Z,23.50
2023-05-20T10:22:11.747Z,23.63
2023-05-20T10:25:08.828Z,23.73
2023-05-20T10:28:16.382Z,23.61
2023-05-20T10:31:21.797Z,23.39
2023-05-20T10:34:20.949Z,23.23
2023-05-20T10:37:07.533Z,23.05
2023-05-20T10:40:06.080Z,23.10
2023-05-20T10:42:52.289Z,23.11
2023-05-20T10:45:54.606Z,23.42
2023-05-20T10:48:43.381Z,23.69
2023-05-20T10:51:32.520Z,24.04
2023-05-20T10:54:18.362Z,24.63
2023-05-20T10:57:11.298Z,25.44
2023-05-20T11:00:17.251Z,25.99
2023-05-20T11:03:07.618Z,26.28
2023-05-20T11:05:53.818Z,26.68
2023-05-20T11:08:39.982Z,26.71
2023-05-20T11:11:26.866Z,26.91
2023-05-20T11:14:15.315Z,26.80
2023-05-20T11:17:01.641Z,26.77
2023-05-20T11:19:49.257Z,26.80
2023-05-20T11:22:37.891Z,26.54
2023-05-20T11:25:25.008Z,26.35
2023-05-20T11:28:14.728Z,26.50
2023-05-20T11:31:01.983Z,26.70
2023-05-20T11:33:47.889Z,26.18
2023-05-20T11:36:35.037Z,25.66
2023-05-20T11:39:21.344Z,25.51
2023-05-20T11:42:08.050Z,25.78
2023-05-20T11:44:54.089Z,25.85
2023-05-20T11:47:40.367Z,25.88
2023-05-20T11:50:26.467Z,25.91
2023-05-20T11:53:21.727Z,25.93
2023-05-20T11:56:07.983Z,26.07
2023-05-20T11:59:00.692Z,26.18
2023-05-20T12:01:46.784Z,26.19
2023-05-20T12:04:33.016Z,26.05
2023-05-20T12:07:19.476Z,26.07
2023-05-20T12:10:07.268Z,25.95
2023-05-20T12:12:57.072Z,26.12
2023-05-20T12:15:44.899Z,26.11
2023-05-20T12:18:31.780Z,26.00
2023-05-20T12:21:19.223Z,26.05
2023-05-20T12:24:07.232Z,26.12
2023-05-20T12:26:53.261Z,25.99
2023-05-20T12:29:39.989Z,25.68
2023-05-20T12:32:25.992Z,25.45
2023-05-20T12:35:13.829Z,25.26
2023-05-20T12:38:01.268Z,25.14
2023-05-20T12:40:48.028Z,25.11
2023-05-20T12:43:35.555Z,25.12
2023-05-20T12:46:23.281Z,25.22
2023-05-20T12:49:10.770Z,24.96
2023-05-20T12:51:57.207Z,24.82
2023-05-20T12:54:44.781Z,24.67
2023-05-20T12:57:31.370Z,24.57
2023-05-20T13:00:18.178Z,24.48
2023-05-20T13:03:04.323Z,24.43
2023-05-20T13:05:51.289Z,24.35
2023-05-20T13:08:37.424Z,24.36
2023-05-20T13:11:24.676Z,24.29
2023-05-20T13:14:10.868Z,24.17
2023-05-20T13:16:58.133Z,24.18
2023-05-20T13:19:46.393Z,24.22
2023-05-20T13:22:34.657Z,24.15
2023-05-20T13:25:21.206Z,24.02
2023-05-20T13:28:07.804Z,23.86
2023-05-20T13:30:53.973Z,23.88
2023-05-20T13:33:41.158Z,23.97
2023-05-20T13:36:27.691Z,23.96
2023-05-20T13:39:15.972Z,24.00
2023-05-20T13:42:02.929Z,24.12
2023-05-20T13:44:51.848Z,24.00
2023-05-20T13:47:38.572Z,23.83
2023-05-20T13:50:27.111Z,23.84
2023-05-20T13:53:14.424Z,23.86
2023-05-20T13:56:00.710Z,23.80
2023-05-20T13:58:47.404Z,23.78
2023-05-20T14:01:33.725Z,23.75
2023-05-20T14:04:20.172Z,23.68
2023-05-20T14:07:09.808Z,23.54
2023-05-20T14:09:57.538Z,23.39
2023-05-20T14:12:47.983Z,23.26
2023-05-20T14:15:36.100Z,23.27
2023-05-20T14:18:23.655Z,23.32
2023-05-20T14:21:11.664Z,23.41
2023-05-20T14:23:59.371Z,23.46
2023-05-20T14:26:45.493Z,23.45
2023-05-20T14:29:32.715Z,23.38
2023-05-20T14:32:18.884Z,23.35
2023-05-20T14:35:06.282Z,23.33
2023-05-20T14:37:52.858Z,23.36
2023-05-20T14:40:39.049Z,23.37
2023-05-20T14:43:25.925Z,23.36
2023-05-20T14:46:12.948Z,23.27
2023-05-20T14:48:59.214Z,23.17
2023-05-20T14:51:46.325Z,23.07
2023-05-20T14:54:35.678Z,23.05
2023-05-20T14:57:22.214Z,23.03
2023-05-20T15:00:09.621Z,23.06
2023-05-20T15:02:56.339Z,23.06
2023-05-20T15:06:03.696Z,22.99
2023-05-20T15:08:51.993Z,22.89
2023-05-20T15:11:40.062Z,22.88
2023-05-20T15:14:30.142Z,22.92
2023-05-20T15:17:16.424Z,22.93
2023-05-20T15:20:03.391Z,22.99
2023-05-20T15:22:52.345Z,23.00
2023-05-20T15:25:42.568Z,22.82
2023-05-20T15:28:29.179Z,22.73
2023-05-20T15:31:15.714Z,22.64
2023-05-20T15:34:01.942Z,22.64
2023-05-20T15:36:51.546Z,22.70
2023-05-20T15:39:38.923Z,22.77
2023-05-20T15:42:25.906Z,22.88
2023-05-20T15:45:17.829Z,22.98
2023-05-20T15:48:04.481Z,23.06
2023-05-20T15:50:50.805Z,23.18
2023-05-20T15:53:40.035Z,23.24
2023-05-20T15:56:27.471Z,23.23
2023-05-20T15:59:14.397Z,23.18
2023-05-20T16:02:00.230Z,22.99
2023-05-20T16:04:47.137Z,22.89
2023-05-20T16:07:33.242Z,22.87
2023-05-20T16:10:20.167Z,22.83
2023-05-20T16:13:06.777Z,22.86
2023-05-20T16:15:57.950Z,22.80
2023-05-20T16:18:45.424Z,22.65
2023-05-20T16:21:32.447Z,22.46
2023-05-20T16:24:18.490Z,22.22
2023-05-20T16:27:07.545Z,22.03
2023-05-20T16:29:54.004Z,21.91
2023-05-20T16:32:41.293Z,21.81
2023-05-20T16:35:27.291Z,21.71
2023-05-20T16:38:14.260Z,21.64
2023-05-20T16:41:01.509Z,21.52
2023-05-20T16:43:48.101Z,21.42
2023-05-20T16:46:34.729Z,21.36
2023-05-20T16:49:21.512Z,21.35
2023-05-20T16:52:07.978Z,21.37
2023-05-20T16:54:54.912Z,21.38
2023-05-20T16:57:40.942Z,21.38
2023-05-20T17:00:27.625Z,21.37
2023-05-20T17:03:14.455Z,21.29
2023-05-20T17:06:03.142Z,21.22
2023-05-20T17:08:48.940Z,21.18
2023-05-20T17:11:36.237Z,21.07
2023-05-20T17:14:22.453Z,20.99
2023-05-20T17:17:09.583Z,20.94
2023-05-20T17:19:56.239Z,20.91
2023-05-20T17:22:42.748Z,20.87
2023-05-20T17:25:29.241Z,20.86
2023-05-20T17:28:16.951Z,20.81
2023-05-20T17:31:02.892Z,20.82
2023-05-20T17:33:50.749Z,20.83
2023-05-20T17:36:37.851Z,20.80
2023-05-20T17:39:24.209Z,20.82
2023-05-20T17:42:10.743Z,20.79
2023-05-20T17:44:57.018Z,20.77
2023-05-20T17:47:43.024Z,20.74
2023-05-20T17:50:29.515Z,20.77
2023-05-20T17:53:15.939Z,20.69
2023-05-20T17:56:02.208Z,20.67
2023-05-20T17:58:48.292Z,20.67
2023-05-20T18:01:37.882Z,20.65
2023-05-20T18:04:24.022Z,20.58
2023-05-20T18:07:13.556Z,20.56
2023-05-20T18:09:59.777Z,20.52
2023-05-20T18:12:46.185Z,20.50
2023-05-20T18:15:32.152Z,20.49
2023-05-20T18:18:18.981Z,20.47
2023-05-20T18:21:07.820Z,20.40
2023-05-20T18:23:54.274Z,20.34
2023-05-20T18:26:42.863Z,20.33
2023-05-20T18:29:30.660Z,20.33
2023-05-20T18:32:16.869Z,20.31
2023-05-20T18:35:03.516Z,20.25
2023-05-20T18:37:49.644Z,20.21
2023-05-20T18:40:36.790Z,20.24
2023-05-20T18:43:23.295Z,20.22
2023-05-20T18:46:10.589Z,20.13
2023-05-20T18:48:56.710Z,20.03
2023-05-20T18:51:43.707Z,19.95
2023-05-20T18:54:29.796Z,19.92
2023-05-20T18:57:17.011Z,19.84
2023-05-20T19:00:05.508Z,19.75
2023-05-20T19:02:52.321Z,19.63
2023-05-20T19:05:39.036Z,19.61
2023-05-20T19:08:27.491Z,19.50
2023-05-20T19:11:13.716Z,19.40
2023-05-20T19:14:00.645Z,19.27
2023-05-20T19:16:46.703Z,19.25
2023-05-20T19:19:33.869Z,19.21
2023-05-20T19:22:19.947Z,19.19
2023-05-20T19:25:07.550Z,19.13
2023-05-20T19:27:53.594Z,19.09
2023-05-20T19:30:42.565Z,19.03
2023-05-20T19:33:28.590Z,18.98
2023-05-20T19:36:15.714Z,19.00
2023-05-20T19:39:03.594Z,18.95
2023-05-20T19:41:50.686Z,18.86
2023-05-20T19:44:37.466Z,18.81
2023-05-20T19:47:27.821Z,18.77
2023-05-20T19:50:17.732Z,18.76
2023-05-20T19:53:08.264Z,18.72
2023-05-20T19:55:54.750Z,18.71
2023-05-20T19:58:41.953Z,18.65
2023-05-20T20:01:28.609Z,18.60
2023-05-20T20:04:17.236Z,18.55
2023-05-20T20:07:03.683Z,18.45
2023-05-20T20:09:52.063Z,18.35
2023-05-20T20:12:38.957Z,18.31
2023-05-20T20:15:27.459Z,18.28
2023-05-20T20:18:13.230Z,18.23
2023-05-20T20:21:01.241Z,18.18
2023-05-20T20:23:47.187Z,18.14
2023-05-20T20:26:34.690Z,18.09
2023-05-20T20:29:24.765Z,18.05
2023-05-20T20:32:11.818Z,18.01
2023-05-20T20:34:59.041Z,17.97
2023-05-20T20:37:45.196Z,17.87
2023-05-20T20:40:33.515Z,17.83
2023-05-20T20:43:21.121Z,17.85
2023-05-20T20:46:07.654Z,17.84
2023-05-20T20:48:54.403Z,17.80
2023-05-20T20:51:40.717Z,17.77
2023-05-20T20:54:27.471Z,17.72
2023-05-20T20:57:20.549Z,17.58
2023-05-20T21:00:17.590Z,17.55
2023-05-20T21:03:04.739Z,17.47
2023-05-20T21:05:52.339Z,17.36
2023-05-20T21:08:38.533Z,17.30
2023-05-20T21:11:28.652Z,17.19
2023-05-20T21:14:15.419Z,17.13
2023-05-20T21:17:01.371Z,17.09
2023-05-20T21:19:47.948Z,17.08
2023-05-20T21:22:33.952Z,17.08
2023-05-20T21:25:20.061Z,17.07
2023-05-20T21:28:06.149Z,17.03
2023-05-20T21:30:52.523Z,17.00
2023-05-20T21:33:38.593Z,17.01
2023-05-20T21:36:26.108Z,17.02
2023-05-20T21:39:11.818Z,17.03
2023-05-20T21:41:58.264Z,17.02
2023-05-20T21:44:44.316Z,17.00
2023-05-20T21:47:31.729Z,17.03
2023-05-20T21:50:17.876Z,17.02
2023-05-20T21:53:03.632Z,17.02
2023-05-20T21:55:50.550Z,17.03
2023-05-20T21:58:41.338Z,17.03
2023-05-20T22:01:27.876Z,17.06
2023-05-20T22:04:15.180Z,17.15
2023-05-20T22:07:02.040Z,17.20
2023-05-20T22:09:48.041Z,17.19
2023-05-20T22:12:36.060Z,17.20
2023-05-20T22:15:22.972Z,17.23
2023-05-20T22:18:10.138Z,17.25
2023-05-20T22:20:59.296Z,17.26
2023-05-20T22:23:45.114Z,17.27
2023-05-20T22:26:33.686Z,17.28
2023-05-20T22:29:20.987Z,17.26
2023-05-20T22:32:07.909Z,17.24
2023-05-20T22:34:58.384Z,17.21
2023-05-20T22:37:45.322Z,17.19
2023-05-20T22:40:31.745Z,17.16
2023-05-20T22:43:18.800Z,17.14
2023-05-20T22:46:05.057Z,17.14
2023-05-20T22:48:55.567Z,17.14
2023-05-20T22:51:42.248Z,17.12
2023-05-20T22:54:28.293Z,17.11
2023-05-20T22:57:14.498Z,17.10
2023-05-20T23:00:00.881Z,17.06
2023-05-20T23:02:50.264Z,17.08
2023-05-20T23:05:36.709Z,17.04
2023-05-20T23:08:23.139Z,17.03
2023-05-20T23:11:08.793Z,17.04
2023-05-20T23:13:55.846Z,17.02
2023-05-20T23:16:42.296Z,16.97
2023-05-20T23:19:29.092Z,16.94
2023-05-20T23:22:15.517Z,16.92
2023-05-20T23:25:02.435Z,16.94
2023-05-20T23:27:48.852Z,16.94
2023-05-20T23:30:36.468Z,16.92
2023-05-20T23:33:25.648Z,16.91
2023-05-20T23:36:12.573Z,16.86
2023-05-20T23:38:59.287Z,16.84
2023-05-20T23:41:45.073Z,16.82
2023-05-20T23:44:32.112Z,16.77
2023-05-20T23:47:18.786Z,16.76
2023-05-20T23:50:05.528Z,16.74
2023-05-20T23:52:51.537Z,16.70
2023-05-20T23:55:37.957Z,16.69
2023-05-20T23:58:25.096Z,16.65
